Ridgway, IL (62979)

7:42 PM CST on December 24, 2014 (GMT -0600)
APRSWXNET Ridgway IL US | Change Station
CLOSE
Current Station
Personal Weather Station
Location: North Fork, IL
Elevation: 376 ft
Nearby Weather Stations

Elev 376 ft 37.80 °N, 88.26 °W | Updated 41 minutes ago

Overcast
Overcast
40 °F
Feels Like 40 °F
N
3
Wind Variable Wind from WSW
Gusts 8.0 mph

Today
High -- | Low -- °F
--% Chance of Precip.
Yesterday
High -- | Low -- °F
Precip. -- in
7:06 AM 4:39 PM
Waxing Crescent, 12% visible
Pressure 29.83 in
Visibility 10.0 miles
Clouds Scattered Clouds 1600 ft
Mostly Cloudy 4500 ft
Overcast 7000 ft
Windchill 40 °F
Dew Point 37 °F
Humidity 89%
Rainfall 0.20 in
Snow Depth Not available.
UV 0 out of 12
Pollen .30 out of 12
Air Quality Not available.
Flu Activity Not available.
METAR KHSB 250135Z AUTO 25009KT 10SM SCT016 BKN045 OVC070 04/03 A2983 RMK AO2 T00400026

More Conditions Fewer Conditions

Pressure 29.83 in
Visibility 10.0 miles
Clouds Scattered Clouds 1600 ft
Mostly Cloudy 4500 ft
Overcast 7000 ft
Windchill 40 °F
Dew Point 37 °F
Humidity 89%
Rainfall 0.20 in
Snow Depth Not available.
UV 0 out of 12
Pollen .30 out of 12
Air Quality Not available.
Flu Activity Not available.
METAR KHSB 250135Z AUTO 25009KT 10SM SCT016 BKN045 OVC070 04/03 A2983 RMK AO2 T00400026

More Conditions Fewer Conditions

10-Day Weather Forecast

Almanac

Astronomy

Dec. 24, 2014 Rise Set
Actual Time
Civil Twilight
Nautical Twilight
Astronomical Twilight
Moon
Length of Visible Light
Length of Day
Tomorrow will be .
, % of the Moon is Illuminated

Today's Extremes

State Highs State Lows

Community

WunderPhotos

Upload Photos

1,780,208 photos uploaded!

WunderBlogs® & News

Nearby

Air Quality

  Air Quality AQ Index Pollutant
Not available.

Snow Depth

Station Depth Elevation

Earthquake Activity

City Distance Mag. Time & Date
Minimum magnitude displayed is 2.5.

Coastal Water Temperatures

Place Temperature

Nearby Weather Stations